Time;durP1;ratioP1;P1;durP2;ratioP2;P2;SDS_P1;SDS_P2;PMS_P1;PMS_P2;Temp;Humidity;BMP_temperature;BMP_pressure;BME280_temperature;BME280_humidity;BME280_pressure;Samples;Min_cycle;Max_cycle;Signal;HPM_P1;HPM_P2
2023/08/08 00:02:21;;;;;;;11.30;2.80;;;;;;;11.63;100.00;98047.36;106885;1272;25400;-55
2023/08/08 00:05:03;;;;;;;3.30;1.80;;;;;;;11.69;100.00;98050.51;106664;1272;99325;-58
2023/08/08 00:07:32;;;;;;;4.30;1.10;;;;;;;11.75;100.00;98050.71;106865;1274;22703;-59
2023/08/08 00:10:05;;;;;;;10.10;1.80;;;;;;;11.82;100.00;98049.48;107019;1269;99249;-57
2023/08/08 00:12:37;;;;;;;6.60;2.00;;;;;;;11.90;100.00;98046.73;106975;1275;22521;-58
2023/08/08 00:15:10;;;;;;;6.10;1.10;;;;;;;11.94;100.00;98051.57;106828;1273;100196;-57
2023/08/08 00:17:51;;;;;;;5.80;1.10;;;;;;;12.03;100.00;98044.02;106846;1274;24249;-56
2023/08/08 00:20:41;;;;;;;9.20;2.50;;;;;;;12.08;100.00;98054.25;106889;1266;22623;-56
2023/08/08 00:23:10;;;;;;;5.60;1.30;;;;;;;12.11;100.00;98055.09;110536;1270;22226;-58
2023/08/08 00:25:38;;;;;;;3.90;1.40;;;;;;;12.13;100.00;98054.41;110681;1269;22547;-58
2023/08/08 00:28:10;;;;;;;4.80;1.20;;;;;;;12.14;100.00;98055.69;107135;1271;99253;-58
2023/08/08 00:30:39;;;;;;;3.80;1.30;;;;;;;12.10;100.00;98064.61;106932;1270;22603;-57
2023/08/08 00:33:10;;;;;;;5.30;1.40;;;;;;;12.05;100.00;98051.88;106821;1275;99961;-57
2023/08/08 00:35:44;;;;;;;9.30;1.40;;;;;;;12.05;100.00;98066.55;106984;1270;25425;-59
2023/08/08 00:38:14;;;;;;;6.70;1.50;;;;;;;12.13;100.00;98062.73;106743;1267;23745;-57
2023/08/08 00:40:46;;;;;;;9.80;2.60;;;;;;;12.18;100.00;98061.84;106841;1267;99230;-56
2023/08/08 00:43:15;;;;;;;4.40;1.40;;;;;;;12.06;100.00;98068.43;106772;1270;24261;-57
2023/08/08 00:45:47;;;;;;;8.00;1.60;;;;;;;12.00;100.00;98067.63;106721;1273;99292;-58
2023/08/08 00:48:36;;;;;;;2.90;1.10;;;;;;;11.96;100.00;98069.00;106777;1270;22545;-57
2023/08/08 00:51:08;;;;;;;7.10;1.30;;;;;;;11.92;100.00;98070.38;106914;1275;100188;-62
2023/08/08 00:53:40;;;;;;;6.70;1.30;;;;;;;11.84;100.00;98067.28;106926;1272;25353;-59
2023/08/08 00:56:21;;;;;;;6.30;1.50;;;;;;;11.92;100.00;98065.51;106897;1267;25321;-57
2023/08/08 00:59:03;;;;;;;5.20;1.50;;;;;;;11.95;100.00;98060.20;106994;1262;99310;-57
2023/08/08 01:01:38;;;;;;;6.20;1.20;;;;;;;11.97;100.00;98061.30;107106;1270;23870;-57
2023/08/08 01:04:21;;;;;;;4.30;1.50;;;;;;;11.98;100.00;98048.14;106871;1274;99333;-58
2023/08/08 01:07:44;;;;;;;5.50;1.10;;;;;;;11.99;100.00;98050.81;107097;1266;25271;-56
2023/08/08 01:10:27;;;;;;;;;;;;;;;;;;;;;
2023/08/08 01:13:06;;;;;;;4.90;1.40;;;;;;;12.09;100.00;98040.47;107036;1269;22521;-57
2023/08/08 01:15:47;;;;;;;9.70;1.50;;;;;;;12.10;100.00;98040.86;106897;1267;99452;-58
2023/08/08 01:18:20;;;;;;;4.20;1.50;;;;;;;12.12;100.00;98035.81;106975;1267;22557;-58
2023/08/08 01:21:01;;;;;;;6.10;1.80;;;;;;;12.17;100.00;98045.70;106701;1272;99792;-58
2023/08/08 01:24:02;;;;;;;6.80;2.00;;;;;;;12.18;100.00;98040.37;106987;1274;22528;-56
2023/08/08 01:26:37;;;;;;;3.50;1.40;;;;;;;12.19;100.00;98036.62;106859;1263;24341;-57
2023/08/08 01:29:30;;;;;;;6.30;1.60;;;;;;;12.21;100.00;98036.70;107015;1267;22521;-59
2023/08/08 01:32:10;;;;;;;4.10;1.30;;;;;;;12.24;100.00;98039.75;107138;1271;22547;-57
2023/08/08 01:34:52;;;;;;;3.60;1.50;;;;;;;12.26;100.00;98034.17;106873;1267;99701;-58
2023/08/08 01:37:39;;;;;;;4.90;1.20;;;;;;;12.28;99.99;98032.21;107027;1269;22521;-58
2023/08/08 01:40:12;;;;;;;4.60;1.40;;;;;;;12.30;99.97;98029.32;106758;1267;99321;-57
2023/08/08 01:42:43;;;;;;;6.10;1.80;;;;;;;12.32;99.84;98025.16;107080;1270;24211;-56
2023/08/08 01:45:32;;;;;;;5.50;1.50;;;;;;;12.35;99.81;98030.48;106794;1270;99287;-57
2023/08/08 01:48:07;;;;;;;3.40;1.20;;;;;;;12.38;99.67;98034.46;106998;1267;24714;-57
2023/08/08 01:50:37;;;;;;;4.50;1.80;;;;;;;12.37;99.48;98032.12;107331;1273;25220;-56
2023/08/08 01:53:12;;;;;;;3.00;1.20;;;;;;;12.34;99.37;98026.73;106870;1273;99529;-56
2023/08/08 01:55:49;;;;;;;4.70;1.40;;;;;;;12.34;99.30;98026.06;106992;1270;22549;-57
2023/08/08 01:58:21;;;;;;;7.60;1.20;;;;;;;12.34;99.21;98015.41;106808;1272;99492;-58
2023/08/08 02:00:50;;;;;;;8.80;1.40;;;;;;;12.32;99.04;98025.50;107010;1273;22637;-57
2023/08/08 02:03:25;;;;;;;4.70;1.30;;;;;;;12.28;98.96;98023.13;107334;1270;99828;-55
2023/08/08 02:06:03;;;;;;;3.70;1.30;;;;;;;12.30;98.93;98030.12;107119;1270;22531;-57
2023/08/08 02:08:32;;;;;;;4.10;1.40;;;;;;;12.30;99.11;98025.82;107310;1269;22529;-58
2023/08/08 02:11:09;;;;;;;6.00;1.10;;;;;;;12.34;99.05;98025.02;106971;1270;98963;-57
2023/08/08 02:13:38;;;;;;;5.20;1.30;;;;;;;12.37;98.75;98028.77;106965;1272;25279;-56
2023/08/08 02:16:11;;;;;;;6.50;1.50;;;;;;;12.40;98.68;98029.42;106960;1272;99615;-58
2023/08/08 02:18:41;;;;;;;6.90;1.70;;;;;;;12.43;98.44;98034.40;106805;1272;24232;-58
2023/08/08 02:21:22;;;;;;;6.80;1.70;;;;;;;12.46;98.27;98030.08;106792;1272;99330;-58
2023/08/08 02:24:14;;;;;;;5.20;1.30;;;;;;;12.49;98.26;98037.04;107038;1269;22675;-56
2023/08/08 02:26:53;;;;;;;3.50;1.20;;;;;;;12.52;98.02;98038.67;107059;1269;98898;-57
2023/08/08 02:29:25;;;;;;;5.80;1.30;;;;;;;12.56;97.92;98034.34;107051;1251;23547;-58
2023/08/08 02:32:03;;;;;;;4.10;1.30;;;;;;;12.57;97.67;98034.79;107008;1267;22528;-58
2023/08/08 02:34:32;;;;;;;3.90;1.20;;;;;;;12.54;97.17;98043.45;106894;1267;99266;-58
2023/08/08 02:37:10;;;;;;;4.50;1.10;;;;;;;12.52;97.24;98041.48;107043;1267;25403;-55
2023/08/08 02:39:40;;;;;;;3.80;1.00;;;;;;;12.54;97.12;98048.16;106937;1270;99094;-62
2023/08/08 02:42:12;;;;;;;4.80;2.10;;;;;;;12.56;97.07;98036.99;106946;1272;24356;-59
2023/08/08 02:45:02;;;;;;;4.50;1.40;;;;;;;12.58;96.91;98037.66;106956;1274;25344;-58
2023/08/08 02:50:24;;;;;;;2.20;1.10;;;;;;;12.61;96.91;98045.08;106901;1269;25575;-58
2023/08/08 02:53:03;;;;;;;5.00;1.20;;;;;;;12.63;96.71;98047.02;106927;1272;105130;-57
2023/08/08 02:55:32;;;;;;;6.40;1.70;;;;;;;12.65;96.59;98040.06;106902;1269;23078;-61
2023/08/08 02:58:07;;;;;;;3.80;1.20;;;;;;;12.67;96.39;98053.17;106950;1270;99141;-58
2023/08/08 03:00:58;;;;;;;5.60;1.70;;;;;;;12.69;96.39;98050.73;106918;1270;25227;-57
2023/08/08 03:03:28;;;;;;;3.50;1.30;;;;;;;12.70;96.22;98059.17;106856;1270;99253;-59
2023/08/08 03:06:19;;;;;;;5.50;1.50;;;;;;;12.70;96.15;98052.86;106884;1272;22532;-58
2023/08/08 03:08:52;;;;;;;5.40;1.60;;;;;;;12.70;96.19;98059.70;107016;1269;22547;-60
2023/08/08 03:11:23;;;;;;;3.60;1.20;;;;;;;12.70;96.14;98058.34;106758;1270;22510;-57
2023/08/08 03:13:52;;;;;;;5.90;1.20;;;;;;;12.67;96.02;98061.66;107021;1272;22640;-59
2023/08/08 03:16:33;;;;;;;9.60;1.50;;;;;;;12.63;95.90;98070.75;106861;1275;99118;-59
2023/08/08 03:19:05;;;;;;;6.20;1.20;;;;;;;12.53;96.10;98067.27;107008;1270;22548;-56
2023/08/08 03:21:37;;;;;;;3.90;1.10;;;;;;;12.56;95.93;98068.90;106758;1270;99232;-56
2023/08/08 03:24:09;;;;;;;2.40;1.20;;;;;;;12.57;95.78;98069.51;107084;1266;25272;-56
2023/08/08 03:26:38;;;;;;;2.10;1.10;;;;;;;12.56;95.76;98076.10;106998;1272;23434;-57
2023/08/08 03:29:10;;;;;;;3.80;1.30;;;;;;;12.52;95.72;98081.25;106753;1272;99106;-61
2023/08/08 03:31:39;;;;;;;2.80;1.10;;;;;;;12.49;95.73;98079.98;107065;1270;22601;-58
2023/08/08 03:34:08;;;;;;;2.80;1.20;;;;;;;12.49;95.79;98083.47;106835;1269;99448;-57
2023/08/08 03:36:47;;;;;;;2.60;1.10;;;;;;;12.48;95.82;98083.18;106756;1273;22630;-56
2023/08/08 03:39:16;;;;;;;2.70;1.20;;;;;;;12.48;96.00;98086.68;107003;1273;99287;-58
2023/08/08 03:41:54;;;;;;;4.40;1.80;;;;;;;12.34;96.71;98091.27;106994;1253;23354;-56
2023/08/08 03:44:32;;;;;;;5.60;1.40;;;;;;;12.45;96.31;98088.34;106842;1275;22520;-57
2023/08/08 03:47:06;;;;;;;2.50;1.00;;;;;;;12.51;96.05;98096.39;106958;1273;99139;-58
2023/08/08 03:49:53;;;;;;;5.30;1.10;;;;;;;12.48;96.19;98098.51;106894;1253;24203;-58
2023/08/08 03:52:34;;;;;;;3.90;1.30;;;;;;;12.52;95.94;98099.56;106649;1275;99824;-62
2023/08/08 03:55:04;;;;;;;3.40;1.20;;;;;;;12.55;95.96;98100.08;106884;1273;22524;-57
2023/08/08 03:57:46;;;;;;;;;;;;;;;;;;;;;
2023/08/08 04:00:20;;;;;;;3.30;0.90;;;;;;;12.40;96.46;98108.65;107000;1273;22595;-59
2023/08/08 04:02:58;;;;;;;7.10;1.50;;;;;;;12.41;96.31;98114.83;106938;1273;23001;-58
2023/08/08 04:05:28;;;;;;;3.50;0.90;;;;;;;12.26;95.84;98119.46;106811;1273;24409;-58
2023/08/08 04:08:02;;;;;;;2.80;1.10;;;;;;;12.11;96.10;98126.46;106820;1269;25403;-58
2023/08/08 04:10:42;;;;;;;3.60;1.20;;;;;;;11.96;96.36;98131.08;106676;1252;99605;-57
2023/08/08 04:13:16;;;;;;;2.90;1.20;;;;;;;11.89;96.62;98134.27;106846;1273;22528;-58
2023/08/08 04:15:51;;;;;;;5.20;1.20;;;;;;;11.83;96.67;98135.40;106842;1270;99105;-57
2023/08/08 04:18:23;;;;;;;3.70;0.90;;;;;;;11.77;96.85;98137.44;106807;1269;22522;-58
2023/08/08 04:20:53;;;;;;;2.40;0.90;;;;;;;11.70;96.75;98145.41;106741;1272;22534;-57
2023/08/08 04:23:25;;;;;;;2.00;0.90;;;;;;;11.67;97.11;98143.11;107142;1270;100757;-57
2023/08/08 04:26:17;;;;;;;5.90;1.00;;;;;;;11.66;97.45;98143.98;106788;1253;24234;-57
2023/08/08 04:28:49;;;;;;;3.70;0.90;;;;;;;11.65;97.32;98141.66;106733;1269;99689;-57
2023/08/08 04:31:42;;;;;;;2.10;0.90;;;;;;;11.67;97.96;98145.55;106970;1275;22648;-58
2023/08/08 04:34:39;;;;;;;3.90;1.20;;;;;;;11.78;98.05;98146.73;106942;1271;99126;-57
2023/08/08 04:37:31;;;;;;;3.70;0.90;;;;;;;11.93;97.99;98148.25;107004;1270;24248;-58
2023/08/08 04:40:13;;;;;;;6.40;1.30;;;;;;;12.01;98.14;98153.36;107182;1273;99287;-58
2023/08/08 04:42:45;;;;;;;3.30;1.20;;;;;;;12.07;98.18;98151.86;106911;1275;25287;-58
2023/08/08 04:45:27;;;;;;;2.50;1.10;;;;;;;12.11;98.12;98149.42;106861;1272;99671;-58
2023/08/08 04:47:58;;;;;;;3.80;1.10;;;;;;;12.14;98.16;98165.45;106932;1270;24312;-57
2023/08/08 04:50:49;;;;;;;2.80;1.30;;;;;;;12.15;98.26;98166.08;106829;1272;25368;-58
2023/08/08 04:53:17;;;;;;;2.30;0.80;;;;;;;12.15;98.16;98170.27;106825;1271;99258;-57
2023/08/08 04:55:55;;;;;;;4.10;0.90;;;;;;;12.05;98.13;98172.21;107007;1267;25410;-58
2023/08/08 04:58:30;;;;;;;3.50;1.50;;;;;;;12.00;98.18;98174.20;106908;1262;99068;-57
2023/08/08 05:01:25;;;;;;;4.90;1.20;;;;;;;11.96;98.07;98177.11;107281;1267;26535;-58
2023/08/08 05:04:08;;;;;;;;;;;;;;;;;;;;;
2023/08/08 05:06:46;;;;;;;2.90;1.10;;;;;;;11.95;98.74;98177.21;107040;1267;22515;-57
2023/08/08 05:09:26;;;;;;;3.70;1.20;;;;;;;12.01;99.05;98175.72;106976;1267;99967;-55
2023/08/08 05:12:34;;;;;;;3.80;1.10;;;;;;;12.13;99.25;98174.39;107113;1267;22776;-56
2023/08/08 05:15:07;;;;;;;3.00;1.00;;;;;;;12.24;99.18;98179.15;107008;1267;99347;-58
2023/08/08 05:17:36;;;;;;;2.30;0.90;;;;;;;12.32;99.19;98188.62;107087;1266;22639;-57
2023/08/08 05:20:09;;;;;;;4.00;1.20;;;;;;;12.40;99.11;98186.44;106926;1270;22528;-60
2023/08/08 05:22:38;;;;;;;2.80;1.20;;;;;;;12.46;98.96;98191.19;107057;1266;99055;-56
2023/08/08 05:25:11;;;;;;;7.00;3.20;;;;;;;12.53;98.94;98192.72;106930;1273;22637;-59
2023/08/08 05:27:43;;;;;;;3.40;1.00;;;;;;;12.59;98.88;98194.52;106988;1271;99468;-57
2023/08/08 05:30:21;;;;;;;2.90;0.90;;;;;;;12.67;98.91;98198.09;107092;1269;22507;-57
2023/08/08 05:33:01;;;;;;;3.80;1.20;;;;;;;12.84;99.18;98193.60;107050;1274;22627;-58
2023/08/08 05:35:30;;;;;;;4.00;1.00;;;;;;;13.11;99.28;98188.52;107165;1273;22537;-58
2023/08/08 05:38:03;;;;;;;3.80;1.70;;;;;;;13.27;98.87;98196.36;106953;1267;22578;-57
2023/08/08 05:40:38;;;;;;;4.10;1.10;;;;;;;13.41;98.79;98195.91;106815;1267;99675;-58
2023/08/08 05:43:18;;;;;;;1.70;0.90;;;;;;;13.49;98.59;98200.66;106795;1257;25405;-58
2023/08/08 05:45:50;;;;;;;4.40;1.20;;;;;;;13.52;98.39;98203.02;106907;1267;99292;-57
2023/08/08 05:48:28;;;;;;;7.50;1.30;;;;;;;13.55;98.25;98208.50;107293;1270;22775;-58
2023/08/08 05:50:59;;;;;;;3.30;1.00;;;;;;;13.55;98.29;98219.34;107085;1267;22996;-57
2023/08/08 05:53:32;;;;;;;2.80;1.10;;;;;;;13.65;98.27;98224.46;107217;1267;22548;-58
2023/08/08 05:56:10;;;;;;;3.50;0.90;;;;;;;13.74;97.98;98230.56;106842;1267;22569;-56
2023/08/08 05:58:43;;;;;;;3.80;1.40;;;;;;;13.81;97.75;98225.61;106976;1270;99111;-58
2023/08/08 06:01:33;;;;;;;6.20;2.00;;;;;;;13.84;97.56;98230.76;107103;1267;24792;-59
2023/08/08 06:04:06;;;;;;;2.70;0.80;;;;;;;13.81;97.45;98241.33;106732;1260;275236;-57
2023/08/08 06:06:56;;;;;;;4.40;0.90;;;;;;;13.93;97.29;98237.91;107022;1270;24333;-57
2023/08/08 06:09:34;;;;;;;2.50;1.10;;;;;;;14.08;97.07;98247.42;107165;1270;99294;-57
2023/08/08 06:12:07;;;;;;;3.20;1.00;;;;;;;14.17;97.22;98247.95;107065;1270;22600;-58
2023/08/08 06:15:07;;;;;;;2.40;0.80;;;;;;;14.41;96.72;98254.75;107089;1267;23872;-56
2023/08/08 06:17:38;;;;;;;5.40;1.10;;;;;;;14.69;96.58;98247.49;107084;1267;22524;-58
2023/08/08 06:20:20;;;;;;;2.60;0.80;;;;;;;14.83;96.28;98250.13;106960;1270;22520;-58
2023/08/08 06:22:53;;;;;;;2.60;0.90;;;;;;;15.00;96.15;98255.73;107027;1270;99472;-57
2023/08/08 06:25:24;;;;;;;3.40;1.10;;;;;;;15.28;96.10;98245.51;107007;1270;22541;-56
2023/08/08 06:27:57;;;;;;;4.40;1.10;;;;;;;15.53;95.79;98254.34;106855;1273;99103;-55
2023/08/08 06:30:29;;;;;;;4.70;0.90;;;;;;;15.85;95.71;98250.92;107210;1258;22527;-59
2023/08/08 06:32:58;;;;;;;6.10;1.10;;;;;;;16.01;95.08;98254.05;107033;1267;22528;-56
2023/08/08 06:35:27;;;;;;;3.80;1.00;;;;;;;16.09;94.64;98250.58;106916;1270;99652;-56
2023/08/08 06:37:56;;;;;;;4.70;1.00;;;;;;;16.10;94.39;98249.48;107049;1267;25393;-56
2023/08/08 06:40:28;;;;;;;3.30;1.10;;;;;;;16.09;93.91;98249.39;107075;1271;99556;-56
2023/08/08 06:42:58;;;;;;;8.80;1.20;;;;;;;16.15;93.72;98248.68;107048;1253;22728;-58
2023/08/08 06:45:32;;;;;;;3.00;1.00;;;;;;;16.17;93.38;98260.27;107177;1267;99242;-59
2023/08/08 06:48:10;;;;;;;4.90;1.10;;;;;;;16.37;93.51;98258.33;107531;1269;22537;-60
2023/08/08 06:50:43;;;;;;;3.70;1.00;;;;;;;16.51;92.72;98264.77;107474;1263;22655;-54
2023/08/08 06:53:19;;;;;;;2.80;0.70;;;;;;;16.50;91.98;98259.11;107047;1267;99076;-57
2023/08/08 06:55:49;;;;;;;4.50;0.90;;;;;;;16.59;92.03;98276.29;107706;1273;22554;-55
2023/08/08 06:58:27;;;;;;;2.90;1.20;;;;;;;16.78;91.99;98272.23;106880;1270;99107;-57
2023/08/08 07:01:17;;;;;;;4.20;1.00;;;;;;;17.00;91.95;98273.11;107211;1267;22804;-54
2023/08/08 07:03:47;;;;;;;5.90;1.00;;;;;;;17.17;91.13;98283.58;108026;1269;99637;-57
2023/08/08 07:06:43;;;;;;;3.50;1.70;;;;;;;17.22;90.95;98286.19;106995;1270;25328;-62
2023/08/08 07:09:14;;;;;;;1.40;0.70;;;;;;;17.05;89.91;98290.86;107646;1269;99256;-57
2023/08/08 07:11:47;;;;;;;4.50;0.80;;;;;;;16.88;89.44;98295.86;107475;1267;22549;-56
2023/08/08 07:14:27;;;;;;;4.20;1.50;;;;;;;16.66;89.03;98301.08;108960;1267;22541;-59
2023/08/08 07:16:58;;;;;;;4.10;0.90;;;;;;;16.52;88.78;98299.81;107360;1267;100112;-55
2023/08/08 07:19:30;;;;;;;2.20;0.60;;;;;;;16.35;88.17;98309.98;108797;1271;24315;-56
2023/08/08 07:22:04;;;;;;;3.20;0.80;;;;;;;16.37;88.12;98314.23;107788;1263;99317;-58
2023/08/08 07:24:38;;;;;;;2.50;0.80;;;;;;;16.27;88.24;98314.98;107581;1270;22562;-57
2023/08/08 07:27:09;;;;;;;3.20;1.60;;;;;;;16.23;88.24;98316.54;107661;1263;99235;-58
2023/08/08 07:29:37;;;;;;;4.90;1.10;;;;;;;16.36;88.63;98299.06;107760;1270;22578;-56
2023/08/08 07:32:09;;;;;;;6.40;1.30;;;;;;;16.52;88.31;98303.87;110163;1267;22204;-57
2023/08/08 07:34:45;;;;;;;3.30;1.10;;;;;;;18.26;92.23;98305.42;108126;1267;98112;-56
2023/08/08 07:37:14;;;;;;;4.30;1.00;;;;;;;19.61;88.36;98295.02;106930;1269;22522;-57
2023/08/08 07:39:43;;;;;;;2.70;1.00;;;;;;;20.18;87.31;98312.65;106802;1267;99817;-56
2023/08/08 07:42:13;;;;;;;4.20;1.00;;;;;;;20.12;85.46;98317.23;107161;1267;23947;-59
2023/08/08 07:44:42;;;;;;;3.10;1.00;;;;;;;20.23;86.19;98319.20;107100;1267;25265;-57
2023/08/08 07:47:12;;;;;;;3.80;1.30;;;;;;;20.93;86.21;98319.11;107122;1267;99045;-56
2023/08/08 07:49:43;;;;;;;3.00;0.80;;;;;;;20.57;83.79;98322.89;106994;1267;23092;-56
2023/08/08 07:52:23;;;;;;;4.30;1.80;;;;;;;19.96;83.33;98337.31;107009;1270;99635;-53
2023/08/08 07:54:52;;;;;;;4.90;1.10;;;;;;;19.07;83.23;98343.02;107235;1269;25344;-59
2023/08/08 07:57:21;;;;;;;3.70;1.00;;;;;;;18.40;83.05;98348.49;107350;1267;99422;-54
2023/08/08 07:59:50;;;;;;;4.20;0.90;;;;;;;18.25;83.28;98344.39;107251;1270;24054;-54
2023/08/08 08:02:20;;;;;;;5.50;1.10;;;;;;;18.28;82.98;98337.58;107302;1266;22592;-55
2023/08/08 08:04:51;;;;;;;5.40;2.00;;;;;;;18.64;83.41;98347.44;107195;1266;99067;-55
2023/08/08 08:07:27;;;;;;;2.90;1.10;;;;;;;20.25;85.42;98341.73;107110;1267;22520;-55
2023/08/08 08:10:08;;;;;;;4.10;1.30;;;;;;;22.16;84.39;98352.02;107013;1267;99658;-55
2023/08/08 08:12:38;;;;;;;2.30;0.90;;;;;;;23.29;81.97;98348.41;107210;1267;22642;-58
2023/08/08 08:15:09;;;;;;;2.60;1.00;;;;;;;24.02;81.69;98355.23;107118;1267;99235;-59
2023/08/08 08:17:43;;;;;;;2.90;1.10;;;;;;;24.00;79.19;98346.93;107622;1269;24195;-58
2023/08/08 08:20:18;;;;;;;2.60;0.80;;;;;;;22.92;76.72;98363.62;107375;1267;22719;-60
2023/08/08 08:22:53;;;;;;;2.60;1.10;;;;;;;21.69;75.77;98365.51;107075;1267;99108;-60
2023/08/08 08:25:26;;;;;;;2.50;1.00;;;;;;;20.54;74.65;98372.55;107326;1267;25408;-58
2023/08/08 08:28:05;;;;;;;3.10;0.80;;;;;;;19.67;74.11;98375.72;107446;1266;99062;-58
2023/08/08 08:30:39;;;;;;;4.20;1.20;;;;;;;19.26;74.58;98359.23;107476;1269;24202;-59
2023/08/08 08:33:12;;;;;;;3.20;1.00;;;;;;;20.30;77.69;98349.77;107436;1267;99252;-58
2023/08/08 08:36:03;;;;;;;5.30;1.20;;;;;;;23.33;78.21;98353.45;107533;1267;22616;-59
2023/08/08 08:38:36;;;;;;;4.30;1.10;;;;;;;25.53;75.32;98360.73;107957;1267;25099;-58
2023/08/08 08:41:25;;;;;;;2.30;0.80;;;;;;;27.01;75.34;98368.30;108179;1264;99632;-59
2023/08/08 08:43:56;;;;;;;4.20;1.20;;;;;;;27.47;72.60;98370.91;107714;1266;22634;-60
2023/08/08 08:46:36;;;;;;;2.60;0.80;;;;;;;27.62;71.45;98375.16;107661;1269;99976;-59
2023/08/08 08:49:23;;;;;;;4.90;0.90;;;;;;;27.25;69.41;98378.17;107513;1270;22744;-59
2023/08/08 08:52:00;;;;;;;3.80;0.70;;;;;;;26.88;68.47;98374.91;107277;1267;99682;-60
2023/08/08 08:54:42;;;;;;;2.70;1.00;;;;;;;26.06;66.49;98378.07;107557;1270;24200;-59
2023/08/08 08:57:17;;;;;;;3.70;1.30;;;;;;;25.06;65.25;98385.49;107652;1272;99763;-61
2023/08/08 09:00:16;;;;;;;;;;;;;;;;;;;;;
2023/08/08 09:03:07;;;;;;;4.30;1.30;;;;;;;21.87;62.93;98408.33;107809;1267;23668;-59
2023/08/08 09:05:41;;;;;;;3.60;1.20;;;;;;;20.92;62.60;98415.70;107741;1270;22739;-58
2023/08/08 09:08:12;;;;;;;3.20;0.90;;;;;;;20.34;62.45;98419.42;107620;1270;22814;-59
2023/08/08 09:10:41;;;;;;;3.20;1.10;;;;;;;19.70;62.52;98426.58;107432;1273;99716;-58
2023/08/08 09:13:10;;;;;;;2.30;0.90;;;;;;;19.17;62.20;98430.21;107611;1267;24228;-59
2023/08/08 09:15:49;;;;;;;2.80;1.10;;;;;;;18.74;62.17;98439.13;108812;1263;99254;-60
2023/08/08 09:18:19;;;;;;;3.70;1.10;;;;;;;18.60;62.43;98447.67;108013;1267;25263;-60
2023/08/08 09:21:03;;;;;;;5.50;1.20;;;;;;;18.55;62.36;98448.23;108473;1265;24985;-58
2023/08/08 09:23:32;;;;;;;2.30;0.90;;;;;;;20.56;65.63;98450.73;107276;1269;99629;-59
2023/08/08 09:26:04;;;;;;;3.80;1.30;;;;;;;24.69;66.41;98446.22;107921;1267;26146;-58
2023/08/08 09:28:34;;;;;;;2.60;0.90;;;;;;;28.09;64.90;98444.77;107310;1271;99454;-60
2023/08/08 09:31:06;;;;;;;3.60;1.10;;;;;;;29.24;62.76;98441.68;107373;1267;23329;-56
2023/08/08 09:33:51;;;;;;;2.40;0.70;;;;;;;29.32;61.45;98437.58;107423;1269;100567;-58
2023/08/08 09:36:30;;;;;;;2.40;1.00;;;;;;;27.71;59.62;98438.45;107690;1267;25022;-60
2023/08/08 09:39:07;;;;;;;2.00;1.00;;;;;;;25.99;58.01;98444.20;107279;1261;23473;-57
2023/08/08 09:41:47;;;;;;;1.80;1.00;;;;;;;26.45;60.44;98444.77;108398;1266;99008;-62
2023/08/08 09:44:29;;;;;;;3.00;0.90;;;;;;;29.46;59.09;98431.14;110451;1262;22165;-57
2023/08/08 09:47:18;;;;;;;5.10;1.10;;;;;;;29.30;55.38;98443.70;108437;1267;99063;-57
2023/08/08 09:49:54;;;;;;;5.40;1.20;;;;;;;27.33;54.38;98458.31;109821;1270;22953;-58
2023/08/08 09:52:37;;;;;;;1.50;0.80;;;;;;;25.89;53.81;98458.00;110266;1266;99579;-57
2023/08/08 09:55:06;;;;;;;3.50;1.00;;;;;;;26.21;54.24;98459.58;108386;1270;22549;-60
2023/08/08 09:57:38;;;;;;;3.30;1.20;;;;;;;25.62;50.95;98468.88;107217;1267;99703;-58
2023/08/08 10:00:15;;;;;;;5.70;0.90;;;;;;;24.57;50.49;98473.38;107366;1267;26234;-56
2023/08/08 10:03:16;;;;;;;1.70;0.70;;;;;;;24.90;51.51;98470.09;107532;1267;24256;-59
2023/08/08 10:05:47;;;;;;;4.30;0.80;;;;;;;27.58;51.12;98474.45;110340;1269;22350;-58
2023/08/08 10:08:23;;;;;;;4.90;1.20;;;;;;;27.41;50.32;98475.73;108349;1267;25288;-58
2023/08/08 10:10:56;;;;;;;3.80;1.20;;;;;;;27.23;49.97;98471.34;107315;1267;99132;-58
2023/08/08 10:13:29;;;;;;;2.80;1.30;;;;;;;27.91;49.87;98471.27;107427;1267;24189;-60
2023/08/08 10:16:05;;;;;;;4.70;1.10;;;;;;;28.02;49.06;98476.42;107243;1267;99480;-58
2023/08/08 10:18:38;;;;;;;2.10;0.80;;;;;;;26.95;48.28;98486.04;107178;1267;25348;-59
2023/08/08 10:21:10;;;;;;;2.60;1.10;;;;;;;25.78;47.93;98489.73;107081;1272;22559;-59
2023/08/08 10:23:40;;;;;;;2.50;0.70;;;;;;;26.20;49.42;98498.65;107873;1267;98869;-58
2023/08/08 10:26:19;;;;;;;2.60;1.30;;;;;;;29.33;49.61;98491.97;107057;1272;22524;-57
2023/08/08 10:29:05;;;;;;;2.10;0.90;;;;;;;32.79;49.58;98481.46;107224;1271;99240;-57
2023/08/08 10:31:35;;;;;;;3.70;1.10;;;;;;;35.71;48.05;98472.16;107582;1270;22528;-58
2023/08/08 10:34:09;;;;;;;2.20;0.90;;;;;;;37.16;46.72;98473.30;107013;1267;99658;-57
2023/08/08 10:36:58;;;;;;;3.60;0.70;;;;;;;37.13;45.48;98472.85;107223;1269;22505;-55
2023/08/08 10:39:57;;;;;;;2.00;0.80;;;;;;;39.86;45.59;98463.28;107865;1267;99866;-54
2023/08/08 10:42:30;;;;;;;1.20;0.90;;;;;;;42.36;43.83;98457.09;107685;1271;25249;-58
2023/08/08 10:45:32;;;;;;;1.90;1.20;;;;;;;43.85;41.55;98461.55;107210;1268;22556;-56
2023/08/08 10:48:08;;;;;;;3.40;1.20;;;;;;;44.31;38.41;98461.86;107815;1267;26093;-53
2023/08/08 10:50:41;;;;;;;1.90;1.10;;;;;;;45.55;37.04;98456.30;107513;1274;26414;-52
2023/08/08 10:53:12;;;;;;;2.20;1.30;;;;;;;44.94;33.58;98462.46;107134;1269;99459;-55
2023/08/08 10:56:13;;;;;;;2.10;1.20;;;;;;;42.28;31.12;98457.95;107842;1272;26345;-56
2023/08/08 10:59:39;;;;;;;2.30;1.10;;;;;;;38.75;28.18;98462.36;107637;1270;99111;-55
2023/08/08 11:02:30;;;;;;;8.30;1.10;;;;;;;35.27;27.07;98473.95;107238;1270;22536;-54
2023/08/08 11:05:06;;;;;;;1.00;0.70;;;;;;;32.15;26.97;98497.02;107440;1270;99622;-58
2023/08/08 11:07:37;;;;;;;;;;;;;;;30.34;27.11;98508.45;107596;1272;24356;-56
2023/08/08 11:10:09;;;;;;;1.90;0.80;;;;;;;29.19;27.52;98508.11;107205;1264;85023;-53
2023/08/08 11:12:48;;;;;;;;;;;;;;;;;;;;;
2023/08/08 11:16:56;;;;;;;2.70;0.80;;;;;;;34.84;29.66;98510.84;107724;1269;99332;-54
2023/08/08 11:19:54;;;;;;;2.80;0.70;;;;;;;39.35;29.17;98524.86;106879;1280;24229;-57
2023/08/08 11:22:28;;;;;;;1.40;0.70;;;;;;;40.19;28.69;98521.89;106953;1276;99135;-57
2023/08/08 11:25:10;;;;;;;1.30;0.60;;;;;;;41.22;28.64;98517.46;106836;1277;24252;-57
2023/08/08 11:27:50;;;;;;;1.90;1.00;;;;;;;41.73;28.31;98520.70;107239;1278;99639;-58
2023/08/08 11:30:22;;;;;;;2.50;1.00;;;;;;;42.44;27.70;98525.58;106628;1278;23544;-57
2023/08/08 11:32:51;;;;;;;2.60;1.50;;;;;;;42.84;27.30;98526.21;106470;1275;23617;-57
2023/08/08 11:36:27;;;;;;;1.60;1.30;;;;;;;43.37;27.13;98530.34;106631;1276;99327;-57
2023/08/08 11:39:20;;;;;;;1.60;1.50;;;;;;;42.34;25.89;98531.44;108424;1276;23495;-57
2023/08/08 11:41:50;;;;;;;2.00;1.20;;;;;;;40.32;25.08;98531.22;107367;1275;22529;-58
2023/08/08 11:44:19;;;;;;;1.90;0.70;;;;;;;38.37;24.68;98525.52;106813;1277;22747;-58
2023/08/08 11:46:49;;;;;;;0.80;0.50;;;;;;;36.61;24.84;98538.77;107319;1263;99316;-57
2023/08/08 11:49:26;;;;;;;1.80;0.80;;;;;;;35.96;24.89;98534.66;106291;1280;22569;-58
2023/08/08 11:51:56;;;;;;;2.30;0.50;;;;;;;34.99;25.05;98536.09;106369;1276;100024;-58
2023/08/08 11:54:33;;;;;;;1.10;0.50;;;;;;;34.70;25.45;98534.30;106748;1275;25281;-59
2023/08/08 11:57:04;;;;;;;1.30;0.60;;;;;;;35.62;25.40;98534.62;107500;1270;22993;-58
2023/08/08 11:59:39;;;;;;;2.10;0.60;;;;;;;36.63;25.34;98531.00;107179;1272;99130;-59
2023/08/08 12:02:11;;;;;;;6.60;0.60;;;;;;;37.14;25.21;98537.91;107203;1267;25474;-58
2023/08/08 12:04:45;;;;;;;1.60;0.70;;;;;;;37.04;24.87;98545.33;106781;1272;99264;-57
2023/08/08 12:07:19;;;;;;;2.20;0.80;;;;;;;36.64;24.88;98539.43;107062;1267;25498;-59
2023/08/08 12:09:55;;;;;;;1.20;0.50;;;;;;;36.67;25.19;98533.73;107051;1270;99252;-61
2023/08/08 12:12:37;;;;;;;1.00;0.60;;;;;;;37.37;25.20;98528.94;107161;1267;22524;-59
2023/08/08 12:15:09;;;;;;;6.80;1.10;;;;;;;37.14;24.82;98526.84;107077;1267;23541;-57
2023/08/08 12:17:44;;;;;;;1.00;0.60;;;;;;;36.58;24.81;98528.16;107408;1270;99204;-57
2023/08/08 12:20:15;;;;;;;1.90;0.70;;;;;;;35.24;24.22;98530.22;108123;1267;22517;-58
2023/08/08 12:22:45;;;;;;;0.60;0.40;;;;;;;33.11;24.19;98533.41;107102;1272;99512;-58